TFM - Tactical Decision Aid (Experimental) INFO Settings
ID: Runway Winds: CIG/VIS Threshold: METAR Board: Map:

KGWO - Greenwood-Leflore

Updated at: 1039 UTC 19 Oct 2017
Latest TAF at: 0535 UTC 19 Oct 2017

TAF Board

Time0953Z19/11Z19/12Z19/13Z19/14Z19/15Z19/16Z19/17Z19/18Z19/19Z19/20Z19/21Z19/22Z19/23Z
TypeOBSPRVLPRVLPRVLPRVLPRVLPRVLPRVLPRVLPRVLPRVLPRVLPRVLPRVL
VIS10>6>6>6>6>6>6>6>6>6>6>6>6>6
CIG----------------------------
CoverCLRFEWFEWFEWFEWFEWFEWFEWFEWFEWFEWFEWFEWFEW
FltCatVFRVFRVFRVFRVFRVFRVFRVFRVFRVFRVFRVFRVFRVFR
WX----------------------------
WDir40130130130130130130130130130130130130130
WSpd45555555555555
WGst----------------------------
TAF
KGWO 190535Z 1906/2006 13005KT P6SM FEW250

METAR Board

Time18/23Z 19/00Z 19/01Z 19/02Z 19/03Z 19/04Z 19/05Z 19/06Z 19/07Z 19/08Z 19/09Z 19/10Z
VIS10 10 10 10 10 10 10 10 10 10 10 10
CIG-- -- -- -- -- -- -- -- -- -- -- --
CoverCLRCLRCLRCLRCLRCLRCLRCLRCLRCLRCLRCLR
FltCatVFRVFRVFRVFRVFRVFRVFRVFRVFRVFRVFRVFR
WX------------------------
WDir110001101200140180030040
WSpd4 0 0 7 6 0 8 5 0 3 0 4
WGst-- -- -- -- -- -- -- -- -- -- -- --
METAR
KGWO 182253Z AUTO 11004KT 10SM CLR 23/08 A3017 RMK AO2 SLP216 T02330083
KGWO 182353Z AUTO 00000KT 10SM CLR 16/11 A3019 RMK AO2 SLP222 T01610106 10256 20161 53008
KGWO 190053Z AUTO 00000KT 10SM CLR 14/11 A3020 RMK AO2 SLP227 T01390106
KGWO 190153Z AUTO 11007KT 10SM CLR 17/10 A3020 RMK AO2 SLP226 T01670100
KGWO 190253Z AUTO 12006KT 10SM CLR 16/09 A3021 RMK AO2 SLP228 T01560094 51007
KGWO 190353Z AUTO 00000KT 10SM CLR 11/09 A3021 RMK AO2 SLP229 T01110094
KGWO 190453Z AUTO 14008KT 10SM CLR 16/08 A3020 RMK AO2 SLP224 T01560078
KGWO 190553Z AUTO 18005KT 10SM CLR 14/08 A3019 RMK AO2 SLP222 T01390078 10167 20106 402560072 58006
KGWO 190653Z AUTO 00000KT 10SM CLR 09/07 A3019 RMK AO2 SLP222 T00940072
KGWO 190753Z AUTO 03003KT 10SM CLR 08/07 A3019 RMK AO2 SLP223 T00780072
KGWO 190853Z AUTO 00000KT 10SM CLR 06/06 A3020 RMK AO2 SLP225 T00610056 53002
KGWO 190953Z AUTO 04004KT 10SM CLR 08/07 A3022 RMK AO2 SLP230 T00780067

TAF/METAR Board Legend

Potential Impact
  None Marginal Slight Moderate High
Visibility (sm) >5 3≤X≤5 2≤X<3 0.5≤X<2 <0.5
Ceiling (100 ft) >30 10≤X≤30 6≤X<10 2≤X<6 <2
Wind Speed (kt) <10 10≤X<20 20≤X<30 ≥30
Wind Gust (kt) <15 15≤X<25 25≤X<35 ≥35
Weather No Wx Reported VCTS -TS,-FZRA TS,FZRA +TS,+FZRA